Vega Leader — H3NW — position and weather

sailwx.info

Track history (hours):
 
Tides and Currents Weather Stations Pressure Air Temp Water Temp Dewpoint Dewpoint Depression Visibility Wind Speed Wind Dir Waves Ship Positions

Vega Leader

Last reported at 2017-Oct-21 20:22 UTC. Time now 2017-Oct-22 06:26 UTC.
Position N 36°29' E 023°33'.

Length 180 m; draft 8.9 m.

Type: Cargo ship. MMSI: 355948000.

Date/timePositionNaut miles runAvg speedWind from/ knotsBaromVisibWave heightAir tempDewpointWater temp
2017-Oct-21 20:22N 36°29' E 023°33'1515.4
2017-Oct-21 19:24N 36°43' E 023°41'615.0
2017-Oct-21 19:00N 36°48' E 023°45'815.4
2017-Oct-21 18:30N 36°55' E 023°50'815.9
2017-Oct-21 18:00N 37°01' E 023°56'1416.2
2017-Oct-21 17:09N 37°13' E 024°05'6215.8
2017-Oct-21 13:13N 38°07' E 024°44'316.1
2017-Oct-21 13:00N 38°10' E 024°46'815.8
2017-Oct-21 12:30N 38°17' E 024°50'815.4
2017-Oct-21 12:00N 38°24' E 024°55'1215.8
2017-Oct-21 11:14N 38°35' E 025°02'416.0
2017-Oct-21 11:00N 38°38' E 025°04'2316.0
2017-Oct-21 09:36N 38°58' E 025°17'515.8
2017-Oct-21 09:15N 39°03' E 025°20'415.9
2017-Oct-21 08:59N 39°06' E 025°22'2015.9
2017-Oct-21 07:43N 39°24' E 025°34'1315.6
2017-Oct-21 06:52N 39°36' E 025°42'815.7
2017-Oct-21 06:19N 39°44' E 025°47'516.5
2017-Oct-21 06:00N 39°49' E 025°50'816.4
2017-Oct-21 05:30N 39°56' E 025°55'4812.8
2017-Oct-21 01:45N 40°26' E 026°44'314.5
2017-Oct-21 01:30N 40°27' E 026°48'714.8
2017-Oct-21 01:00N 40°30' E 026°57'82 4.7
2017-Oct-20 07:24N 40°36' E 028°45'1514.1
2017-Oct-20 06:21N 40°44' E 029°01'515.4
2017-Oct-20 06:00N 40°44' E 029°08'815.4
2017-Oct-20 05:30N 40°44' E 029°18'  
2017-Oct-17 22:12N 40°44' E 029°37'313.7
2017-Oct-17 21:59N 40°45' E 029°33'510.4
2017-Oct-17 21:27N 40°44' E 029°26'4 9.6
2017-Oct-17 21:00N 40°43' E 029°21'3 6.3
2017-Oct-17 20:30N 40°43' E 029°16'714.9
2017-Oct-17 20:00N 40°43' E 029°07'714.8
2017-Oct-17 19:30N 40°44' E 028°57'14213.1
2017-Oct-17 08:42N 39°59' E 026°00'313.3
2017-Oct-17 08:27N 39°56' E 025°57'17013.8
2017-Oct-16 20:11N 37°37' E 023°53'315.5
2017-Oct-16 19:59N 37°38' E 023°49'714.5
2017-Oct-16 19:30N 37°42' E 023°41'815.7
2017-Oct-16 19:00N 37°49' E 023°37'714.0
2017-Oct-16 18:30N 37°56' E 023°36'2 3.7
2017-Oct-16 18:00N 37°58' E 023°36'0 0.1
2017-Oct-16 17:30N 37°58' E 023°36'0 0.0
2017-Oct-16 17:00N 37°58' E 023°36'0 0.0
2017-Oct-16 16:30N 37°58' E 023°36'0 0.0
2017-Oct-16 16:00N 37°58' E 023°36'0 0.0
2017-Oct-16 15:30N 37°58' E 023°36'0 0.0
2017-Oct-16 15:00N 37°58' E 023°36'0 0.0
2017-Oct-16 14:30N 37°58' E 023°36'0 0.0
2017-Oct-16 13:30N 37°58' E 023°36'0 0.0
2017-Oct-16 13:00N 37°58' E 023°36'0 0.0
2017-Oct-16 12:24N 37°58' E 023°36'0 0.0
2017-Oct-16 12:00N 37°58' E 023°36'0 0.0
2017-Oct-16 11:27N 37°58' E 023°36'0 0.0
2017-Oct-16 11:00N 37°58' E 023°36'1 1.1
2017-Oct-16 10:31N 37°57' E 023°36'2 4.7
2017-Oct-16 10:01N 37°55' E 023°36'2 4.5
2017-Oct-16 09:31N 37°53' E 023°37'3 5.6
2017-Oct-16 09:01N 37°51' E 023°39'713.6
2017-Oct-16 08:31N 37°45' E 023°43'714.4
2017-Oct-16 08:01N 37°37' E 023°45'815.3
2017-Oct-16 07:31N 37°30' E 023°43'35512.7
2017-Oct-15 03:34N 37°40' E 016°15'116.2
2017-Oct-15 03:29N 37°40' E 016°13'916.0
2017-Oct-15 02:57N 37°43' E 016°03'715.9
2017-Oct-15 02:29N 37°45' E 015°54'815.8
2017-Oct-15 02:01N 37°49' E 015°46'815.2
2017-Oct-15 01:30N 37°54' E 015°38'816.0
2017-Oct-15 01:01N 38°01' E 015°35'815.6
2017-Oct-15 00:30N 38°09' E 015°35'714.3
2017-Oct-15 00:01N 38°15' E 015°39'713.3
2017-Oct-14 23:30N 38°22' E 015°37'816.6
2017-Oct-14 23:00N 38°28' E 015°29'816.2
2017-Oct-14 22:30N 38°33' E 015°22'815.9
2017-Oct-14 22:01N 38°39' E 015°15'815.5
2017-Oct-14 21:30N 38°45' E 015°08'815.7
2017-Oct-14 21:00N 38°50' E 015°00'815.8
2017-Oct-14 20:30N 38°55' E 014°53'815.9
2017-Oct-14 19:59N 39°01' E 014°45'21816.0
2017-Oct-14 06:25N 41°26' E 011°13'2314.5
2017-Oct-14 04:48N 41°42' E 010°50'2413.3
2017-Oct-14 02:59N 41°58' E 010°26'1513.3
2017-Oct-14 01:51N 42°08' E 010°11'5412.6
2017-Oct-13 21:35N 43°02' E 010°02'513.7
2017-Oct-13 21:13N 43°07' E 010°04'313.6
2017-Oct-13 21:00N 43°09' E 010°05'713.8
2017-Oct-13 20:30N 43°16' E 010°07'713.7
2017-Oct-13 20:00N 43°23' E 010°09'713.5
2017-Oct-13 19:28N 43°30' E 010°12'4 9.6
2017-Oct-13 19:00N 43°32' E 010°17'2 4.2
2017-Oct-13 18:27N 43°35' E 010°18'0 0.6
2017-Oct-13 17:58N 43°35' E 010°18'0 0.0
2017-Oct-13 17:25N 43°35' E 010°18'0 0.0
2017-Oct-13 16:55N 43°35' E 010°18'0 0.0
2017-Oct-13 16:28N 43°35' E 010°18'0 0.0
2017-Oct-13 15:55N 43°35' E 010°18'0 0.0
2017-Oct-13 15:22N 43°35' E 010°18'0 0.0
2017-Oct-13 14:58N 43°35' E 010°18'0 0.0
2017-Oct-13 14:25N 43°35' E 010°18'0 0.0
2017-Oct-13 13:52N 43°35' E 010°18'0 0.0
2017-Oct-13 13:28N 43°35' E 010°18'0 0.0
2017-Oct-13 12:58N 43°35' E 010°18'0 0.0
2017-Oct-13 12:25N 43°35' E 010°18'0 0.0
2017-Oct-13 11:58N 43°35' E 010°18'0 0.0
2017-Oct-13 11:28N 43°35' E 010°18'0 0.0
2017-Oct-13 10:58N 43°35' E 010°18'0 0.0
2017-Oct-13 10:28N 43°35' E 010°18'0 0.0
2017-Oct-13 09:58N 43°35' E 010°18'0 0.0
2017-Oct-13 09:28N 43°35' E 010°18'0 0.0
2017-Oct-13 08:58N 43°35' E 010°18'0 0.0
2017-Oct-13 08:16N 43°35' E 010°18'0 0.0
2017-Oct-13 07:55N 43°35' E 010°18'0 0.0
2017-Oct-13 07:28N 43°35' E 010°18'0 0.0
2017-Oct-13 06:58N 43°35' E 010°18'0 0.0
2017-Oct-13 06:28N 43°35' E 010°18'0 0.0
2017-Oct-13 05:58N 43°35' E 010°18'0 0.0
2017-Oct-13 05:28N 43°35' E 010°18'0 0.0
2017-Oct-13 04:58N 43°35' E 010°18'0 0.0
2017-Oct-13 04:28N 43°35' E 010°18'0 0.0
2017-Oct-13 03:58N 43°35' E 010°18'0 0.0
2017-Oct-13 03:28N 43°35' E 010°18'0 0.0
2017-Oct-13 02:55N 43°35' E 010°18'0 0.0
2017-Oct-13 02:28N 43°35' E 010°18'0 0.0
2017-Oct-13 01:58N 43°35' E 010°18'0 0.0
2017-Oct-13 01:28N 43°35' E 010°18'0 0.0
2017-Oct-13 00:58N 43°35' E 010°18'0 0.0
2017-Oct-13 00:28N 43°35' E 010°18'0 0.0
2017-Oct-12 23:58N 43°35' E 010°18'0 0.0
2017-Oct-12 23:28N 43°35' E 010°18'0 0.0
2017-Oct-12 22:52N 43°35' E 010°18'0 0.0
2017-Oct-12 22:28N 43°35' E 010°18'0 0.0
2017-Oct-12 21:58N 43°35' E 010°18'0 0.0
2017-Oct-12 21:25N 43°35' E 010°18'0 0.0
2017-Oct-12 20:58N 43°35' E 010°18'0 0.0
2017-Oct-12 20:28N 43°35' E 010°18'0 0.0
2017-Oct-12 19:59N 43°35' E 010°18'2 4.3
2017-Oct-12 19:30N 43°33' E 010°17'4 7.1
2017-Oct-12 19:00N 43°30' E 010°14'1 1.9
2017-Oct-12 18:30N 43°29' E 010°14'1 1.3
2017-Oct-12 18:00N 43°29' E 010°14'2 3.0
2017-Oct-12 17:26N 43°27' E 010°13'1 1.5
2017-Oct-12 17:00N 43°27' E 010°13'1 2.0
2017-Oct-12 16:30N 43°26' E 010°13'2 3.4
2017-Oct-12 15:58N 43°24' E 010°12'1 1.2
2017-Oct-12 15:27N 43°23' E 010°12'1 2.0
2017-Oct-12 15:00N 43°24' E 010°13'511.0
2017-Oct-12 14:30N 43°29' E 010°15'4 8.5
2017-Oct-12 14:00N 43°27' E 010°10'  
Track history (hours):
 
Tides and Currents Weather Stations Pressure Air Temp Water Temp Dewpoint Dewpoint Depression Visibility Wind Speed Wind Dir Waves Ship Positions

Vega Leader

Last reported at 2017-Oct-21 20:22 UTC. Time now 2017-Oct-22 06:26 UTC.
Position N 36°29' E 023°33'.

Length 180 m; draft 8.9 m.

Type: Cargo ship. MMSI: 355948000.

Date/timePositionNaut miles runAvg speedWind from/ knotsBaromVisibWave heightAir tempDewpointWater temp
2017-Oct-21 20:22N 36°29' E 023°33'1515.4
2017-Oct-21 19:24N 36°43' E 023°41'615.0
2017-Oct-21 19:00N 36°48' E 023°45'815.4
2017-Oct-21 18:30N 36°55' E 023°50'815.9
2017-Oct-21 18:00N 37°01' E 023°56'1416.2
2017-Oct-21 17:09N 37°13' E 024°05'6215.8
2017-Oct-21 13:13N 38°07' E 024°44'316.1
2017-Oct-21 13:00N 38°10' E 024°46'815.8
2017-Oct-21 12:30N 38°17' E 024°50'815.4
2017-Oct-21 12:00N 38°24' E 024°55'1215.8
2017-Oct-21 11:14N 38°35' E 025°02'416.0
2017-Oct-21 11:00N 38°38' E 025°04'2316.0
2017-Oct-21 09:36N 38°58' E 025°17'515.8
2017-Oct-21 09:15N 39°03' E 025°20'415.9
2017-Oct-21 08:59N 39°06' E 025°22'2015.9
2017-Oct-21 07:43N 39°24' E 025°34'1315.6
2017-Oct-21 06:52N 39°36' E 025°42'815.7
2017-Oct-21 06:19N 39°44' E 025°47'516.5
2017-Oct-21 06:00N 39°49' E 025°50'816.4
2017-Oct-21 05:30N 39°56' E 025°55'4812.8
2017-Oct-21 01:45N 40°26' E 026°44'314.5
2017-Oct-21 01:30N 40°27' E 026°48'714.8
2017-Oct-21 01:00N 40°30' E 026°57'82 4.7
2017-Oct-20 07:24N 40°36' E 028°45'1514.1
2017-Oct-20 06:21N 40°44' E 029°01'515.4
2017-Oct-20 06:00N 40°44' E 029°08'815.4
2017-Oct-20 05:30N 40°44' E 029°18'  
2017-Oct-17 22:12N 40°44' E 029°37'313.7
2017-Oct-17 21:59N 40°45' E 029°33'510.4
2017-Oct-17 21:27N 40°44' E 029°26'4 9.6
2017-Oct-17 21:00N 40°43' E 029°21'3 6.3
2017-Oct-17 20:30N 40°43' E 029°16'714.9
2017-Oct-17 20:00N 40°43' E 029°07'714.8
2017-Oct-17 19:30N 40°44' E 028°57'14213.1
2017-Oct-17 08:42N 39°59' E 026°00'313.3
2017-Oct-17 08:27N 39°56' E 025°57'17013.8
2017-Oct-16 20:11N 37°37' E 023°53'315.5
2017-Oct-16 19:59N 37°38' E 023°49'714.5
2017-Oct-16 19:30N 37°42' E 023°41'815.7
2017-Oct-16 19:00N 37°49' E 023°37'714.0
2017-Oct-16 18:30N 37°56' E 023°36'2 3.7
2017-Oct-16 18:00N 37°58' E 023°36'0 0.1
2017-Oct-16 17:30N 37°58' E 023°36'0 0.0
2017-Oct-16 17:00N 37°58' E 023°36'0 0.0
2017-Oct-16 16:30N 37°58' E 023°36'0 0.0
2017-Oct-16 16:00N 37°58' E 023°36'0 0.0
2017-Oct-16 15:30N 37°58' E 023°36'0 0.0
2017-Oct-16 15:00N 37°58' E 023°36'0 0.0
2017-Oct-16 14:30N 37°58' E 023°36'0 0.0
2017-Oct-16 13:30N 37°58' E 023°36'0 0.0
2017-Oct-16 13:00N 37°58' E 023°36'0 0.0
2017-Oct-16 12:24N 37°58' E 023°36'0 0.0
2017-Oct-16 12:00N 37°58' E 023°36'0 0.0
2017-Oct-16 11:27N 37°58' E 023°36'0 0.0
2017-Oct-16 11:00N 37°58' E 023°36'1 1.1
2017-Oct-16 10:31N 37°57' E 023°36'2 4.7
2017-Oct-16 10:01N 37°55' E 023°36'2 4.5
2017-Oct-16 09:31N 37°53' E 023°37'3 5.6
2017-Oct-16 09:01N 37°51' E 023°39'713.6
2017-Oct-16 08:31N 37°45' E 023°43'714.4
2017-Oct-16 08:01N 37°37' E 023°45'815.3
2017-Oct-16 07:31N 37°30' E 023°43'35512.7
2017-Oct-15 03:34N 37°40' E 016°15'116.2
2017-Oct-15 03:29N 37°40' E 016°13'916.0
2017-Oct-15 02:57N 37°43' E 016°03'715.9
2017-Oct-15 02:29N 37°45' E 015°54'815.8
2017-Oct-15 02:01N 37°49' E 015°46'815.2
2017-Oct-15 01:30N 37°54' E 015°38'816.0
2017-Oct-15 01:01N 38°01' E 015°35'815.6
2017-Oct-15 00:30N 38°09' E 015°35'714.3
2017-Oct-15 00:01N 38°15' E 015°39'713.3
2017-Oct-14 23:30N 38°22' E 015°37'816.6
2017-Oct-14 23:00N 38°28' E 015°29'816.2
2017-Oct-14 22:30N 38°33' E 015°22'815.9
2017-Oct-14 22:01N 38°39' E 015°15'815.5
2017-Oct-14 21:30N 38°45' E 015°08'815.7
2017-Oct-14 21:00N 38°50' E 015°00'815.8
2017-Oct-14 20:30N 38°55' E 014°53'815.9
2017-Oct-14 19:59N 39°01' E 014°45'21816.0
2017-Oct-14 06:25N 41°26' E 011°13'2314.5
2017-Oct-14 04:48N 41°42' E 010°50'2413.3
2017-Oct-14 02:59N 41°58' E 010°26'1513.3
2017-Oct-14 01:51N 42°08' E 010°11'5412.6
2017-Oct-13 21:35N 43°02' E 010°02'513.7
2017-Oct-13 21:13N 43°07' E 010°04'313.6
2017-Oct-13 21:00N 43°09' E 010°05'713.8
2017-Oct-13 20:30N 43°16' E 010°07'713.7
2017-Oct-13 20:00N 43°23' E 010°09'713.5
2017-Oct-13 19:28N 43°30' E 010°12'4 9.6
2017-Oct-13 19:00N 43°32' E 010°17'2 4.2
2017-Oct-13 18:27N 43°35' E 010°18'0 0.6
2017-Oct-13 17:58N 43°35' E 010°18'0 0.0
2017-Oct-13 17:25N 43°35' E 010°18'0 0.0
2017-Oct-13 16:55N 43°35' E 010°18'0 0.0
2017-Oct-13 16:28N 43°35' E 010°18'0 0.0
2017-Oct-13 15:55N 43°35' E 010°18'0 0.0
2017-Oct-13 15:22N 43°35' E 010°18'0 0.0
2017-Oct-13 14:58N 43°35' E 010°18'0 0.0
2017-Oct-13 14:25N 43°35' E 010°18'0 0.0
2017-Oct-13 13:52N 43°35' E 010°18'0 0.0
2017-Oct-13 13:28N 43°35' E 010°18'0 0.0
2017-Oct-13 12:58N 43°35' E 010°18'0 0.0
2017-Oct-13 12:25N 43°35' E 010°18'0 0.0
2017-Oct-13 11:58N 43°35' E 010°18'0 0.0
2017-Oct-13 11:28N 43°35' E 010°18'0 0.0
2017-Oct-13 10:58N 43°35' E 010°18'0 0.0
2017-Oct-13 10:28N 43°35' E 010°18'0 0.0
2017-Oct-13 09:58N 43°35' E 010°18'0 0.0
2017-Oct-13 09:28N 43°35' E 010°18'0 0.0
2017-Oct-13 08:58N 43°35' E 010°18'0 0.0
2017-Oct-13 08:16N 43°35' E 010°18'0 0.0
2017-Oct-13 07:55N 43°35' E 010°18'0 0.0
2017-Oct-13 07:28N 43°35' E 010°18'0 0.0
2017-Oct-13 06:58N 43°35' E 010°18'0 0.0
2017-Oct-13 06:28N 43°35' E 010°18'0 0.0
2017-Oct-13 05:58N 43°35' E 010°18'0 0.0
2017-Oct-13 05:28N 43°35' E 010°18'0 0.0
2017-Oct-13 04:58N 43°35' E 010°18'0 0.0
2017-Oct-13 04:28N 43°35' E 010°18'0 0.0
2017-Oct-13 03:58N 43°35' E 010°18'0 0.0
2017-Oct-13 03:28N 43°35' E 010°18'0 0.0
2017-Oct-13 02:55N 43°35' E 010°18'0 0.0
2017-Oct-13 02:28N 43°35' E 010°18'0 0.0
2017-Oct-13 01:58N 43°35' E 010°18'0 0.0
2017-Oct-13 01:28N 43°35' E 010°18'0 0.0
2017-Oct-13 00:58N 43°35' E 010°18'0 0.0
2017-Oct-13 00:28N 43°35' E 010°18'0 0.0
2017-Oct-12 23:58N 43°35' E 010°18'0 0.0
2017-Oct-12 23:28N 43°35' E 010°18'0 0.0
2017-Oct-12 22:52N 43°35' E 010°18'0 0.0
2017-Oct-12 22:28N 43°35' E 010°18'0 0.0
2017-Oct-12 21:58N 43°35' E 010°18'0 0.0
2017-Oct-12 21:25N 43°35' E 010°18'0 0.0
2017-Oct-12 20:58N 43°35' E 010°18'0 0.0
2017-Oct-12 20:28N 43°35' E 010°18'0 0.0
2017-Oct-12 19:59N 43°35' E 010°18'2 4.3
2017-Oct-12 19:30N 43°33' E 010°17'4 7.1
2017-Oct-12 19:00N 43°30' E 010°14'1 1.9
2017-Oct-12 18:30N 43°29' E 010°14'1 1.3
2017-Oct-12 18:00N 43°29' E 010°14'2 3.0
2017-Oct-12 17:26N 43°27' E 010°13'1 1.5
2017-Oct-12 17:00N 43°27' E 010°13'1 2.0
2017-Oct-12 16:30N 43°26' E 010°13'2 3.4
2017-Oct-12 15:58N 43°24' E 010°12'1 1.2
2017-Oct-12 15:27N 43°23' E 010°12'1 2.0
2017-Oct-12 15:00N 43°24' E 010°13'511.0
2017-Oct-12 14:30N 43°29' E 010°15'4 8.5
2017-Oct-12 14:00N 43°27' E 010°10'  

Dump ship's entire track history